createdAt,value
2022-09-17T00:00:55.556Z,99070.97
2022-09-17T00:01:57.434Z,99069.75
2022-09-17T00:02:59.158Z,99061.19
2022-09-17T00:04:04.728Z,99074.13
2022-09-17T00:05:07.101Z,99058.25
2022-09-17T00:06:11.873Z,99076.81
2022-09-17T00:07:13.584Z,99069.19
2022-09-17T00:08:15.495Z,99078.34
2022-09-17T00:09:17.245Z,99068.13
2022-09-17T00:10:20.573Z,99071.06
2022-09-17T00:11:29.875Z,99072.94
2022-09-17T00:12:32.251Z,99072.72
2022-09-17T00:13:34.063Z,99068.38
2022-09-17T00:14:35.993Z,99055.78
2022-09-17T00:15:42.807Z,99040.03
2022-09-17T00:16:47.907Z,99059.28
2022-09-17T00:17:55.609Z,99064.50
2022-09-17T00:18:58.659Z,99066.94
2022-09-17T00:20:00.402Z,99066.94
2022-09-17T00:21:03.435Z,99069.06
2022-09-17T00:22:05.104Z,99058.72
2022-09-17T00:23:08.554Z,99068.47
2022-09-17T00:24:12.546Z,99068.47
2022-09-17T00:25:14.332Z,99065.78
2022-09-17T00:26:16.077Z,99070.59
2022-09-17T00:27:17.854Z,99068.72
2022-09-17T00:28:19.558Z,99068.38
2022-09-17T00:29:21.338Z,99068.94
2022-09-17T00:30:23.029Z,99067.31
2022-09-17T00:31:26.057Z,99069.19
2022-09-17T00:32:28.215Z,99069.19
2022-09-17T00:33:29.881Z,99062.16
2022-09-17T00:34:31.779Z,99062.16
2022-09-17T00:35:33.594Z,99069.41
2022-09-17T00:36:37.326Z,99065.06
2022-09-17T00:37:38.995Z,99070.47
2022-09-17T00:38:40.996Z,99061.19
2022-09-17T00:39:42.758Z,99068.84
2022-09-17T00:40:44.484Z,99061.78
2022-09-17T00:41:46.212Z,99066.34
2022-09-17T00:42:48.027Z,99061.19
2022-09-17T00:43:58.128Z,99066.34
2022-09-17T00:45:00.175Z,99060.94
2022-09-17T00:46:03.702Z,99064.69
2022-09-17T00:47:08.566Z,99063.91
2022-09-17T00:48:11.621Z,99067.66
2022-09-17T00:49:16.000Z,99066.81
2022-09-17T00:50:23.004Z,99065.16
2022-09-17T00:51:31.155Z,99066.81
2022-09-17T00:52:41.415Z,99053.44
2022-09-17T00:53:43.298Z,99069.31
2022-09-17T00:54:49.815Z,99068.72
2022-09-17T00:55:59.195Z,99055.19
2022-09-17T00:57:00.892Z,99066.81
2022-09-17T00:58:06.010Z,99070.25
2022-09-17T00:59:08.599Z,99078.13
2022-09-17T01:00:10.998Z,99060.13
2022-09-17T01:01:12.755Z,99071.31
2022-09-17T01:02:15.992Z,99079.41
2022-09-17T01:03:17.899Z,99080.22
2022-09-17T01:04:23.185Z,99072.38
2022-09-17T01:05:44.651Z,99072.38
2022-09-17T01:07:11.878Z,99076.94
2022-09-17T01:08:30.123Z,99073.41
2022-09-17T01:09:40.907Z,99085.53
2022-09-17T01:10:51.599Z,99072.22
2022-09-17T01:12:19.951Z,99077.88
2022-09-17T01:13:52.167Z,99074.72
2022-09-17T01:15:00.075Z,99076.38
2022-09-17T01:16:34.091Z,99083.06
2022-09-17T01:17:59.727Z,99080.13
2022-09-17T01:19:40.598Z,99075.31
2022-09-17T01:21:04.921Z,99063.53
2022-09-17T01:22:19.987Z,99082.84
2022-09-17T01:23:49.702Z,99080.00
2022-09-17T01:25:21.087Z,99074.72
2022-09-17T01:26:56.243Z,99074.94
2022-09-17T01:28:33.658Z,99079.06
2022-09-17T01:30:10.796Z,99085.28
2022-09-17T01:31:21.909Z,99078.94
2022-09-17T01:32:35.328Z,99074.00
2022-09-17T01:33:44.365Z,99077.38
2022-09-17T01:35:13.482Z,99078.00
2022-09-17T01:36:39.936Z,99071.78
2022-09-17T01:38:03.632Z,99073.41
2022-09-17T01:39:24.718Z,99082.78
2022-09-17T01:40:34.852Z,99071.16
2022-09-17T01:41:56.257Z,99072.22
2022-09-17T01:43:24.590Z,99045.94
2022-09-17T01:44:42.905Z,99077.19
2022-09-17T01:46:07.776Z,99073.84
2022-09-17T01:47:20.699Z,99080.78
2022-09-17T01:48:30.866Z,99074.81
2022-09-17T01:49:39.243Z,99073.13
2022-09-17T01:50:47.118Z,99075.47
2022-09-17T01:51:51.019Z,99080.06
2022-09-17T01:52:56.637Z,99083.81
2022-09-17T01:54:15.117Z,99079.25
2022-09-17T01:55:19.738Z,99085.47
2022-09-17T01:56:30.675Z,99078.28
2022-09-17T01:57:39.294Z,99085.94
2022-09-17T01:58:48.637Z,99085.72
2022-09-17T02:00:01.232Z,99089.22
2022-09-17T02:01:07.443Z,99088.41
2022-09-17T02:02:31.301Z,99095.00
2022-09-17T02:03:42.445Z,99088.75
2022-09-17T02:04:52.286Z,99090.88
2022-09-17T02:06:03.261Z,99080.53
2022-09-17T02:07:16.321Z,99075.56
2022-09-17T02:08:25.499Z,99082.88
2022-09-17T02:09:33.779Z,99091.34
2022-09-17T02:10:41.503Z,99092.19
2022-09-17T02:11:50.099Z,99083.22
2022-09-17T02:12:59.015Z,99088.63
2022-09-17T02:14:07.450Z,99089.69
2022-09-17T02:15:18.774Z,99080.66
2022-09-17T02:16:26.028Z,99077.69
2022-09-17T02:17:35.240Z,99095.09
2022-09-17T02:19:02.794Z,99080.06
2022-09-17T02:20:06.880Z,99089.22
2022-09-17T02:21:17.190Z,99085.94
2022-09-17T02:22:25.965Z,99089.94
2022-09-17T02:23:36.272Z,99083.22
2022-09-17T02:24:55.448Z,99091.81
2022-09-17T02:26:07.348Z,99094.03
2022-09-17T02:27:28.327Z,99093.44
2022-09-17T02:28:41.738Z,99090.28
2022-09-17T02:29:44.805Z,99087.00
2022-09-17T02:30:46.551Z,99090.16
2022-09-17T02:31:48.343Z,99097.69
2022-09-17T02:32:50.279Z,99085.47
2022-09-17T02:33:57.318Z,99092.97
2022-09-17T02:34:59.181Z,99095.44
2022-09-17T02:36:01.754Z,99092.72
2022-09-17T02:37:04.737Z,99096.50
2022-09-17T02:38:07.334Z,99084.50
2022-09-17T02:39:09.271Z,99087.41
2022-09-17T02:40:14.177Z,99091.19
2022-09-17T02:41:21.195Z,99094.03
2022-09-17T02:42:49.867Z,99096.03
2022-09-17T02:44:21.778Z,99094.03
2022-09-17T02:45:56.710Z,99087.00
2022-09-17T02:47:13.522Z,99100.41
2022-09-17T02:48:49.208Z,99095.47
2022-09-17T02:50:00.470Z,99099.22
2022-09-17T02:51:11.284Z,99103.22
2022-09-17T02:52:24.199Z,99097.69
2022-09-17T02:54:05.445Z,99098.41
2022-09-17T02:55:32.011Z,99086.88
2022-09-17T02:56:46.627Z,99103.81
2022-09-17T02:57:48.525Z,99102.63
2022-09-17T02:59:11.883Z,99107.44
2022-09-17T03:00:16.119Z,99075.66
2022-09-17T03:01:44.877Z,99106.38
2022-09-17T03:02:57.885Z,99108.50
2022-09-17T03:04:02.759Z,99103.56
2022-09-17T03:05:06.931Z,99118.13
2022-09-17T03:06:08.844Z,99113.19
2022-09-17T03:07:12.846Z,99100.22
2022-09-17T03:08:15.070Z,99108.31
2022-09-17T03:09:16.745Z,99112.81
2022-09-17T03:10:19.987Z,99108.31
2022-09-17T03:11:21.766Z,99109.50
2022-09-17T03:12:24.868Z,99115.38
2022-09-17T03:13:26.586Z,99114.91
2022-09-17T03:14:28.561Z,99115.16
2022-09-17T03:15:30.306Z,99112.47
2022-09-17T03:16:32.557Z,99113.28
2022-09-17T03:17:34.610Z,99115.16
2022-09-17T03:18:36.391Z,99113.53
2022-09-17T03:19:38.138Z,99115.97
2022-09-17T03:20:39.821Z,99113.53
2022-09-17T03:21:41.504Z,99101.38
2022-09-17T03:22:43.451Z,99111.28
2022-09-17T03:23:47.130Z,99119.97
2022-09-17T03:24:48.928Z,99111.75
2022-09-17T03:25:50.666Z,99120.56
2022-09-17T03:26:52.954Z,99116.22
2022-09-17T03:27:54.812Z,99123.28
2022-09-17T03:28:56.743Z,99113.53
2022-09-17T03:29:58.802Z,99113.16
2022-09-17T03:31:00.538Z,99118.94
2022-09-17T03:32:02.634Z,99122.44
2022-09-17T03:33:04.423Z,99120.78
2022-09-17T03:34:06.353Z,99125.84
2022-09-17T03:35:08.406Z,99122.56
2022-09-17T03:36:10.151Z,99127.84
2022-09-17T03:37:11.823Z,99130.53
2022-09-17T03:38:13.987Z,99130.78
2022-09-17T03:39:15.686Z,99127.03
2022-09-17T03:40:17.500Z,99113.84
2022-09-17T03:41:19.375Z,99132.66
2022-09-17T03:42:21.047Z,99129.75
2022-09-17T03:43:22.785Z,99125.59
2022-09-17T03:44:24.655Z,99126.44
2022-09-17T03:45:26.400Z,99125.00
2022-09-17T03:46:28.288Z,99120.91
2022-09-17T03:47:30.517Z,99119.13
2022-09-17T03:48:35.275Z,99129.94
2022-09-17T03:49:37.016Z,99130.78
2022-09-17T03:50:38.662Z,99129.16
2022-09-17T03:51:40.403Z,99132.66
2022-09-17T03:52:43.669Z,99122.56
2022-09-17T03:53:45.517Z,99127.50
2022-09-17T03:54:47.351Z,99135.34
2022-09-17T03:55:49.043Z,99118.34
2022-09-17T03:56:50.742Z,99099.91
2022-09-17T03:57:52.494Z,99123.75
2022-09-17T03:58:59.142Z,99130.19
2022-09-17T04:00:01.038Z,99127.50
2022-09-17T04:01:04.181Z,99129.16
2022-09-17T04:02:06.308Z,99131.72
2022-09-17T04:03:08.100Z,99138.31
2022-09-17T04:04:09.861Z,99148.28
2022-09-17T04:05:11.630Z,99139.13
2022-09-17T04:06:13.368Z,99138.31
2022-09-17T04:07:15.035Z,99143.72
2022-09-17T04:08:17.016Z,99132.78
2022-09-17T04:09:18.701Z,99137.72
2022-09-17T04:10:20.475Z,99130.06
2022-09-17T04:11:22.771Z,99142.06
2022-09-17T04:12:24.558Z,99139.38
2022-09-17T04:13:26.234Z,99135.81
2022-09-17T04:14:27.970Z,99147.47
2022-09-17T04:15:29.694Z,99135.81
2022-09-17T04:16:31.523Z,99135.81
2022-09-17T04:17:33.402Z,99135.00
2022-09-17T04:18:35.185Z,99136.66
2022-09-17T04:19:36.891Z,99127.56
2022-09-17T04:20:39.951Z,99137.72
2022-09-17T04:21:41.711Z,99142.28
2022-09-17T04:22:43.451Z,99135.00
2022-09-17T04:23:45.112Z,99125.13
2022-09-17T04:24:46.871Z,99138.78
2022-09-17T04:25:48.595Z,99137.94
2022-09-17T04:26:50.233Z,99145.00
2022-09-17T04:27:52.026Z,99139.59
2022-09-17T04:28:53.787Z,99142.53
2022-09-17T04:29:55.474Z,99135.34
2022-09-17T04:30:57.807Z,99134.88
2022-09-17T04:31:59.648Z,99142.28
2022-09-17T04:33:01.381Z,99144.19
2022-09-17T04:34:03.277Z,99149.59
2022-09-17T04:35:05.428Z,99149.59
2022-09-17T04:36:07.142Z,99143.34
2022-09-17T04:37:08.878Z,99143.34
2022-09-17T04:38:10.727Z,99141.09
2022-09-17T04:39:12.562Z,99149.59
2022-09-17T04:40:14.397Z,99146.88
2022-09-17T04:41:16.215Z,99151.44
2022-09-17T04:42:17.924Z,99134.28
2022-09-17T04:43:19.703Z,99149.59
2022-09-17T04:44:21.442Z,99146.28
2022-09-17T04:45:23.857Z,99142.41
2022-09-17T04:46:25.569Z,99153.34
2022-09-17T04:47:27.377Z,99157.09
2022-09-17T04:48:29.212Z,99159.56
2022-09-17T04:49:31.207Z,99157.09
2022-09-17T04:50:32.976Z,99163.31
2022-09-17T04:51:34.998Z,99158.75
2022-09-17T04:52:37.275Z,99159.81
2022-09-17T04:53:38.959Z,99150.63
2022-09-17T04:54:40.735Z,99160.47
2022-09-17T04:55:43.087Z,99157.09
2022-09-17T04:56:44.906Z,99160.84
2022-09-17T04:57:51.236Z,99157.19
2022-09-17T04:58:52.967Z,99167.66
2022-09-17T04:59:54.719Z,99171.66
2022-09-17T05:00:56.467Z,99166.25
2022-09-17T05:01:58.498Z,99155.06
2022-09-17T05:03:00.210Z,99170.81
2022-09-17T05:04:02.439Z,99164.63
2022-09-17T05:05:04.626Z,99162.72
2022-09-17T05:06:06.574Z,99160.00
2022-09-17T05:07:12.051Z,99165.22
2022-09-17T05:08:15.581Z,99162.50
2022-09-17T05:09:17.363Z,99166.84
2022-09-17T05:10:20.826Z,99167.06
2022-09-17T05:11:22.498Z,99170.81
2022-09-17T05:12:24.199Z,99152.22
2022-09-17T05:13:25.873Z,99171.66
2022-09-17T05:14:27.571Z,99168.97
2022-09-17T05:15:29.491Z,99174.59
2022-09-17T05:16:31.285Z,99172.72
2022-09-17T05:17:33.304Z,99165.50
2022-09-17T05:18:34.995Z,99170.03
2022-09-17T05:19:36.780Z,99167.78
2022-09-17T05:20:38.866Z,99160.09
2022-09-17T05:21:40.719Z,99165.88
2022-09-17T05:22:47.804Z,99169.44
2022-09-17T05:23:49.695Z,99165.06
2022-09-17T05:24:51.466Z,99171.06
2022-09-17T05:25:53.207Z,99164.91
2022-09-17T05:26:55.067Z,99177.28
2022-09-17T05:27:56.835Z,99180.25
2022-09-17T05:28:58.601Z,99179.19
2022-09-17T05:30:00.600Z,99184.59
2022-09-17T05:31:02.757Z,99185.66
2022-09-17T05:32:05.659Z,99185.66
2022-09-17T05:33:07.392Z,99184.59
2022-09-17T05:34:09.307Z,99180.06
2022-09-17T05:35:11.495Z,99183.75
2022-09-17T05:36:13.190Z,99179.19
2022-09-17T05:37:14.945Z,99180.25
2022-09-17T05:38:18.560Z,99180.25
2022-09-17T05:39:22.800Z,99182.94
2022-09-17T05:40:24.628Z,99182.09
2022-09-17T05:41:26.406Z,99175.66
2022-09-17T05:42:28.366Z,99177.53
2022-09-17T05:43:30.016Z,99175.03
2022-09-17T05:44:31.883Z,99179.63
2022-09-17T05:45:34.789Z,99180.44
2022-09-17T05:46:36.489Z,99180.25
2022-09-17T05:47:38.234Z,99180.25
2022-09-17T05:48:39.968Z,99184.00
2022-09-17T05:49:41.833Z,99186.69
2022-09-17T05:50:43.541Z,99182.09
2022-09-17T05:51:45.328Z,99170.47
2022-09-17T05:52:47.078Z,99171.75
2022-09-17T05:53:49.067Z,99178.59
2022-09-17T05:54:50.855Z,99174.00
2022-09-17T05:55:57.295Z,99181.28
2022-09-17T05:56:59.003Z,99177.53
2022-09-17T05:58:01.517Z,99176.31
2022-09-17T05:59:03.341Z,99174.25
2022-09-17T06:00:06.117Z,99181.06
2022-09-17T06:01:16.312Z,99174.59
2022-09-17T06:02:18.380Z,99167.59
2022-09-17T06:03:22.975Z,99179.19
2022-09-17T06:04:24.878Z,99179.19
2022-09-17T06:05:26.652Z,99165.16
2022-09-17T06:06:29.771Z,99175.88
2022-09-17T06:07:31.607Z,99179.19
2022-09-17T06:08:35.425Z,99174.84
2022-09-17T06:09:37.742Z,99166.72
2022-09-17T06:10:39.836Z,99165.50
2022-09-17T06:11:42.066Z,99172.47
2022-09-17T06:12:43.806Z,99177.69
2022-09-17T06:13:46.071Z,99172.88
2022-09-17T06:14:47.965Z,99161.66
2022-09-17T06:15:53.899Z,99172.41
2022-09-17T06:16:56.189Z,99167.34
2022-09-17T06:17:57.853Z,99172.28
2022-09-17T06:18:59.772Z,99181.84
2022-09-17T06:20:02.782Z,99170.19
2022-09-17T06:21:05.702Z,99177.03
2022-09-17T06:22:07.604Z,99179.63
2022-09-17T06:23:11.691Z,99183.75
2022-09-17T06:24:17.248Z,99167.53
2022-09-17T06:25:18.975Z,99186.13
2022-09-17T06:26:20.651Z,99183.00
2022-09-17T06:27:22.448Z,99183.59
2022-09-17T06:28:25.290Z,99178.75
2022-09-17T06:29:27.825Z,99178.91
2022-09-17T06:30:29.652Z,99175.50
2022-09-17T06:31:31.538Z,99168.44
2022-09-17T06:32:33.611Z,99176.47
2022-09-17T06:33:36.515Z,99172.13
2022-09-17T06:34:38.196Z,99185.09
2022-09-17T06:35:40.039Z,99184.84
2022-09-17T06:36:41.883Z,99192.50
2022-09-17T06:37:43.595Z,99186.38
2022-09-17T06:38:45.410Z,99179.66
2022-09-17T06:39:47.629Z,99173.81
2022-09-17T06:40:53.095Z,99170.88
2022-09-17T06:41:54.855Z,99169.81
2022-09-17T06:43:00.422Z,99176.97
2022-09-17T06:44:02.577Z,99182.75
2022-09-17T06:45:09.301Z,99171.69
2022-09-17T06:46:12.345Z,99181.81
2022-09-17T06:47:14.150Z,99184.28
2022-09-17T06:48:15.843Z,99179.72
2022-09-17T06:49:18.667Z,99177.59
2022-09-17T06:50:20.683Z,99189.00
2022-09-17T06:51:22.774Z,99187.59
2022-09-17T06:52:24.535Z,99188.53
2022-09-17T06:53:26.322Z,99183.69
2022-09-17T06:54:28.012Z,99180.41
2022-09-17T06:55:29.719Z,99185.97
2022-09-17T06:56:34.378Z,99193.88
2022-09-17T06:57:36.145Z,99194.47
2022-09-17T06:58:38.666Z,99190.31
2022-09-17T06:59:40.408Z,99179.94
2022-09-17T07:00:42.820Z,99192.09
2022-09-17T07:01:44.741Z,99195.63
2022-09-17T07:02:56.515Z,99204.34
2022-09-17T07:03:58.346Z,99191.63
2022-09-17T07:05:00.168Z,99203.88
2022-09-17T07:06:01.903Z,99188.91
2022-09-17T07:07:05.266Z,99187.25
2022-09-17T07:08:07.035Z,99206.38
2022-09-17T07:09:11.106Z,99202.59
2022-09-17T07:10:12.968Z,99202.34
2022-09-17T07:11:16.086Z,99197.97
2022-09-17T07:12:17.879Z,99202.34
2022-09-17T07:13:19.551Z,99205.06
2022-09-17T07:14:21.623Z,99207.53
2022-09-17T07:15:23.617Z,99207.53
2022-09-17T07:16:26.796Z,99210.25
2022-09-17T07:17:29.758Z,99209.19
2022-09-17T07:18:31.595Z,99202.59
2022-09-17T07:19:33.279Z,99213.28
2022-09-17T07:20:34.991Z,99208.94
2022-09-17T07:21:36.759Z,99219.53
2022-09-17T07:22:38.935Z,99218.72
2022-09-17T07:23:40.831Z,99224.97
2022-09-17T07:24:42.494Z,99215.19
2022-09-17T07:25:44.262Z,99208.59
2022-09-17T07:26:46.015Z,99211.63
2022-09-17T07:27:47.691Z,99214.94
2022-09-17T07:28:49.367Z,99223.91
2022-09-17T07:29:51.090Z,99216.59
2022-09-17T07:30:53.891Z,99200.81
2022-09-17T07:31:55.799Z,99222.84
2022-09-17T07:33:01.955Z,99222.84
2022-09-17T07:34:03.804Z,99218.81
2022-09-17T07:35:06.032Z,99216.09
2022-09-17T07:36:11.771Z,99224.50
2022-09-17T07:37:13.446Z,99212.22
2022-09-17T07:38:15.251Z,99223.44
2022-09-17T07:39:16.967Z,99222.00
2022-09-17T07:40:18.765Z,99223.19
2022-09-17T07:41:20.519Z,99228.59
2022-09-17T07:42:22.190Z,99234.84
2022-09-17T07:43:29.323Z,99207.88
2022-09-17T07:44:31.535Z,99226.47
2022-09-17T07:45:33.254Z,99218.34
2022-09-17T07:46:34.977Z,99216.94
2022-09-17T07:47:41.542Z,99220.47
2022-09-17T07:48:43.580Z,99209.78
2022-09-17T07:49:45.383Z,99207.06
2022-09-17T07:50:47.873Z,99221.88
2022-09-17T07:51:49.587Z,99238.16
2022-09-17T07:52:51.883Z,99232.72
2022-09-17T07:53:54.980Z,99228.38
2022-09-17T07:54:56.672Z,99231.66
2022-09-17T07:56:00.323Z,99227.31
2022-09-17T07:57:02.126Z,99226.13
2022-09-17T07:58:04.264Z,99229.78
2022-09-17T07:59:06.073Z,99217.44
2022-09-17T08:00:08.478Z,99231.66
2022-09-17T08:01:16.917Z,99237.69
2022-09-17T08:02:23.256Z,99249.34
2022-09-17T08:03:25.726Z,99234.97
2022-09-17T08:04:27.387Z,99233.53
2022-09-17T08:05:29.091Z,99240.03
2022-09-17T08:06:30.774Z,99244.38
2022-09-17T08:07:32.522Z,99234.84
2022-09-17T08:08:35.987Z,99247.81
2022-09-17T08:09:37.793Z,99247.94
2022-09-17T08:10:39.507Z,99246.88
2022-09-17T08:11:55.754Z,99247.72
2022-09-17T08:12:58.454Z,99249.09
2022-09-17T08:14:00.301Z,99247.09
2022-09-17T08:15:02.175Z,99256.63
2022-09-17T08:16:09.887Z,99249.78
2022-09-17T08:17:11.610Z,99248.50
2022-09-17T08:18:16.487Z,99256.06
2022-09-17T08:19:19.110Z,99255.56
2022-09-17T08:20:21.319Z,99255.00
2022-09-17T08:21:23.428Z,99248.63
2022-09-17T08:22:25.200Z,99258.53
2022-09-17T08:23:27.964Z,99258.19
2022-09-17T08:24:29.862Z,99256.06
2022-09-17T08:25:31.635Z,99261.47
2022-09-17T08:26:33.394Z,99257.69
2022-09-17T08:27:35.299Z,99260.41
2022-09-17T08:28:37.094Z,99256.28
2022-09-17T08:29:38.766Z,99260.41
2022-09-17T08:30:40.426Z,99257.69
2022-09-17T08:31:42.289Z,99267.47
2022-09-17T08:32:44.009Z,99270.19
2022-09-17T08:33:46.894Z,99260.88
2022-09-17T08:34:48.768Z,99268.06
2022-09-17T08:35:55.211Z,99251.91
2022-09-17T08:36:57.286Z,99267.59
2022-09-17T08:37:58.992Z,99268.44
2022-09-17T08:39:01.062Z,99253.94
2022-09-17T08:40:03.452Z,99263.00
2022-09-17T08:41:14.615Z,99270.88
2022-09-17T08:42:33.576Z,99269.94
2022-09-17T08:43:38.074Z,99260.75
2022-09-17T08:44:46.132Z,99269.94
2022-09-17T08:45:55.650Z,99268.06
2022-09-17T08:47:28.431Z,99269.00
2022-09-17T08:48:41.079Z,99262.50
2022-09-17T08:50:03.357Z,99269.34
2022-09-17T08:51:55.940Z,99260.88
2022-09-17T08:53:18.470Z,99260.28
2022-09-17T08:54:35.499Z,99265.50
2022-09-17T08:56:11.798Z,99268.78
2022-09-17T08:57:57.277Z,99266.41
2022-09-17T08:59:21.820Z,99263.97
2022-09-17T09:00:24.771Z,99263.81
2022-09-17T09:02:00.889Z,99263.47
2022-09-17T09:03:21.466Z,99266.75
2022-09-17T09:04:58.604Z,99267.16
2022-09-17T09:06:02.150Z,99260.88
2022-09-17T09:07:19.142Z,99269.72
2022-09-17T09:08:43.325Z,99264.53
2022-09-17T09:09:51.862Z,99258.88
2022-09-17T09:10:57.046Z,99266.91
2022-09-17T09:12:06.061Z,99256.75
2022-09-17T09:13:08.176Z,99270.19
2022-09-17T09:14:09.831Z,99264.19
2022-09-17T09:15:32.128Z,99260.84
2022-09-17T09:16:37.943Z,99264.78
2022-09-17T09:17:44.465Z,99263.13
2022-09-17T09:18:51.444Z,99263.13
2022-09-17T09:19:54.529Z,99267.47
2022-09-17T09:21:22.285Z,99258.88
2022-09-17T09:22:47.222Z,99272.19
2022-09-17T09:23:58.684Z,99262.97
2022-09-17T09:25:25.719Z,99275.03
2022-09-17T09:27:19.536Z,99277.03
2022-09-17T09:28:38.153Z,99278.09
2022-09-17T09:30:02.100Z,99277.50
2022-09-17T09:31:34.538Z,99277.50
2022-09-17T09:32:50.110Z,99281.03
2022-09-17T09:33:52.658Z,99280.44
2022-09-17T09:34:56.128Z,99283.03
2022-09-17T09:35:58.853Z,99279.72
2022-09-17T09:37:24.857Z,99267.94
2022-09-17T09:38:43.374Z,99286.56
2022-09-17T09:39:47.135Z,99273.50
2022-09-17T09:41:12.314Z,99280.09
2022-09-17T09:42:35.834Z,99286.72
2022-09-17T09:44:04.772Z,99278.81
2022-09-17T09:45:16.289Z,99290.22
2022-09-17T09:46:51.800Z,99284.00
2022-09-17T09:48:19.898Z,99280.56
2022-09-17T09:49:36.675Z,99283.75
2022-09-17T09:51:07.065Z,99291.53
2022-09-17T09:52:21.118Z,99298.38
2022-09-17T09:53:32.240Z,99289.66
2022-09-17T09:54:45.842Z,99308.88
2022-09-17T09:56:06.130Z,99295.91
2022-09-17T09:57:13.015Z,99296.34
2022-09-17T09:58:24.810Z,99294.69
2022-09-17T09:59:27.101Z,99291.41
2022-09-17T10:00:37.370Z,99291.88
2022-09-17T10:01:42.849Z,99305.19
2022-09-17T10:02:45.950Z,99298.94
2022-09-17T10:03:51.964Z,99297.31
2022-09-17T10:04:53.678Z,99309.78
2022-09-17T10:06:07.626Z,99296.09
2022-09-17T10:07:11.470Z,99296.25
2022-09-17T10:08:14.853Z,99292.69
2022-09-17T10:09:21.220Z,99298.09
2022-09-17T10:10:23.167Z,99294.34
2022-09-17T10:11:27.771Z,99298.38
2022-09-17T10:12:29.476Z,99306.00
2022-09-17T10:13:35.733Z,99298.38
2022-09-17T10:14:39.271Z,99299.75
2022-09-17T10:15:41.040Z,99297.03
2022-09-17T10:16:42.760Z,99299.41
2022-09-17T10:17:44.437Z,99293.53
2022-09-17T10:18:48.088Z,99304.38
2022-09-17T10:20:12.228Z,99302.00
2022-09-17T10:21:31.900Z,99301.06
2022-09-17T10:22:39.591Z,99302.13
2022-09-17T10:23:43.903Z,99305.09
2022-09-17T10:24:46.559Z,99278.78
2022-09-17T10:25:49.132Z,99298.22
2022-09-17T10:26:51.847Z,99309.31
2022-09-17T10:27:53.717Z,99314.75
2022-09-17T10:28:58.970Z,99303.78
2022-09-17T10:30:14.293Z,99307.41
2022-09-17T10:31:16.743Z,99307.19
2022-09-17T10:32:21.053Z,99292.09
2022-09-17T10:33:30.602Z,99305.53
2022-09-17T10:34:33.787Z,99294.44
2022-09-17T10:35:35.535Z,99317.19
2022-09-17T10:36:43.578Z,99310.38
2022-09-17T10:37:50.216Z,99314.75
2022-09-17T10:38:51.891Z,99318.03
2022-09-17T10:39:53.802Z,99313.09
2022-09-17T10:41:10.645Z,99311.78
2022-09-17T10:42:12.360Z,99319.72
2022-09-17T10:43:17.873Z,99325.31
2022-09-17T10:44:22.995Z,99316.38
2022-09-17T10:45:30.077Z,99320.16
2022-09-17T10:46:34.082Z,99319.09
2022-09-17T10:47:43.942Z,99320.97
2022-09-17T10:49:08.456Z,99326.78
2022-09-17T10:50:25.076Z,99317.13
2022-09-17T10:51:27.874Z,99324.41
2022-09-17T10:52:42.547Z,99321.38
2022-09-17T10:54:36.855Z,99313.47
2022-09-17T10:55:43.123Z,99311.22
2022-09-17T10:56:51.987Z,99326.66
2022-09-17T10:58:07.412Z,99324.78
2022-09-17T10:59:21.431Z,99315.47
2022-09-17T11:00:24.682Z,99317.69
2022-09-17T11:01:45.354Z,99320.88
2022-09-17T11:03:20.478Z,99316.38
2022-09-17T11:04:35.997Z,99316.16
2022-09-17T11:05:43.618Z,99327.00
2022-09-17T11:07:06.331Z,99324.31
2022-09-17T11:08:29.666Z,99328.44
2022-09-17T11:10:09.823Z,99323.47
2022-09-17T11:11:18.947Z,99325.00
2022-09-17T11:12:39.363Z,99321.94
2022-09-17T11:14:04.717Z,99325.25
2022-09-17T11:15:38.435Z,99328.78
2022-09-17T11:16:57.794Z,99334.78
2022-09-17T11:18:17.879Z,99321.81
2022-09-17T11:19:27.205Z,99329.34
2022-09-17T11:20:56.938Z,99327.47
2022-09-17T11:22:17.732Z,99329.94
2022-09-17T11:23:44.306Z,99328.28
2022-09-17T11:25:23.226Z,99326.53
2022-09-17T11:26:51.620Z,99337.59
2022-09-17T11:28:19.635Z,99338.28
2022-09-17T11:29:27.065Z,99333.00
2022-09-17T11:30:39.414Z,99324.41
2022-09-17T11:31:51.297Z,99327.13
2022-09-17T11:33:27.666Z,99338.44
2022-09-17T11:34:45.671Z,99344.44
2022-09-17T11:35:52.802Z,99330.91
2022-09-17T11:37:02.990Z,99315.09
2022-09-17T11:38:17.724Z,99341.38
2022-09-17T11:39:42.931Z,99329.59
2022-09-17T11:40:59.670Z,99327.22
2022-09-17T11:42:06.856Z,99340.31
2022-09-17T11:43:11.395Z,99335.72
2022-09-17T11:44:22.142Z,99337.59
2022-09-17T11:45:34.950Z,99330.31
2022-09-17T11:46:51.571Z,99331.38
2022-09-17T11:48:00.107Z,99332.53
2022-09-17T11:49:06.421Z,99309.69
2022-09-17T11:50:27.931Z,99313.66
2022-09-17T11:51:48.047Z,99339.50
2022-09-17T11:53:06.491Z,99341.16
2022-09-17T11:54:16.755Z,99334.88
2022-09-17T11:55:23.784Z,99327.44
2022-09-17T11:56:38.669Z,99335.13
2022-09-17T11:57:42.465Z,99332.06
2022-09-17T11:58:48.229Z,99345.16
2022-09-17T12:00:14.407Z,99335.72
2022-09-17T12:01:37.480Z,99345.84
2022-09-17T12:02:52.477Z,99339.34
2022-09-17T12:04:18.069Z,99337.84
2022-09-17T12:05:28.675Z,99352.09
2022-09-17T12:06:44.504Z,99343.13
2022-09-17T12:07:50.509Z,99345.84
2022-09-17T12:08:56.907Z,99348.81
2022-09-17T12:10:18.849Z,99341.25
2022-09-17T12:11:28.374Z,99336.06
2022-09-17T12:12:48.896Z,99345.84
2022-09-17T12:13:57.156Z,99339.94
2022-09-17T12:15:13.831Z,99341.00
2022-09-17T12:16:25.073Z,99340.19
2022-09-17T12:17:37.063Z,99338.28
2022-09-17T12:18:56.906Z,99340.28
2022-09-17T12:20:08.900Z,99335.34
2022-09-17T12:21:16.489Z,99333.13
2022-09-17T12:22:24.043Z,99340.19
2022-09-17T12:23:49.971Z,99355.25
2022-09-17T12:24:53.101Z,99328.66
2022-09-17T12:26:14.415Z,99359.28
2022-09-17T12:27:39.116Z,99362.81
2022-09-17T12:28:57.055Z,99353.38
2022-09-17T12:30:22.775Z,99359.13
2022-09-17T12:31:54.704Z,99361.63
2022-09-17T12:33:13.971Z,99365.41
2022-09-17T12:34:46.036Z,99365.41
2022-09-17T12:36:21.100Z,99365.97
2022-09-17T12:37:29.016Z,99363.53
2022-09-17T12:38:48.597Z,99375.66
2022-09-17T12:40:03.064Z,99373.06
2022-09-17T12:41:43.346Z,99374.25
2022-09-17T12:43:06.255Z,99374.59
2022-09-17T12:44:17.358Z,99376.25
2022-09-17T12:45:40.042Z,99369.66
2022-09-17T12:46:53.742Z,99364.72
2022-09-17T12:48:19.224Z,99378.84
2022-09-17T12:49:38.840Z,99382.16
2022-09-17T12:51:10.654Z,99385.34
2022-09-17T12:52:21.087Z,99374.81
2022-09-17T12:53:35.946Z,99379.91
2022-09-17T12:55:06.250Z,99378.28
2022-09-17T12:56:46.603Z,99373.75
2022-09-17T12:58:04.631Z,99379.19
2022-09-17T12:59:19.263Z,99370.72
2022-09-17T13:00:21.599Z,99369.78
2022-09-17T13:02:02.172Z,99372.59
2022-09-17T13:03:29.745Z,99365.88
2022-09-17T13:05:01.710Z,99371.06
2022-09-17T13:06:34.641Z,99367.28
2022-09-17T13:07:48.870Z,99371.31
2022-09-17T13:09:01.091Z,99371.78
2022-09-17T13:10:28.694Z,99376.03
2022-09-17T13:11:55.124Z,99377.44
2022-09-17T13:13:24.391Z,99381.00
2022-09-17T13:14:51.927Z,99379.34
2022-09-17T13:16:21.509Z,99383.69
2022-09-17T13:18:23.002Z,99375.56
2022-09-17T13:19:34.030Z,99389.22
2022-09-17T13:20:53.026Z,99381.22
2022-09-17T13:22:00.400Z,99374.38
2022-09-17T13:23:02.244Z,99379.44
2022-09-17T13:24:16.025Z,99379.69
2022-09-17T13:25:20.213Z,99382.91
2022-09-17T13:26:35.320Z,99382.06